createdAt,value
2022-11-06T00:00:40.158Z,96.97
2022-11-06T00:01:40.562Z,96.31
2022-11-06T00:02:40.519Z,96.78
2022-11-06T00:03:40.355Z,95.74
2022-11-06T00:04:40.366Z,95.74
2022-11-06T00:05:40.312Z,95.26
2022-11-06T00:06:40.039Z,95.07
2022-11-06T00:07:40.282Z,93.84
2022-11-06T00:08:40.006Z,92.43
2022-11-06T00:09:40.268Z,91.67
2022-11-06T00:10:39.979Z,91
2022-11-06T00:11:40.219Z,90.77
2022-11-06T00:12:40.202Z,91.14
2022-11-06T00:13:39.961Z,90.72
2022-11-06T00:14:39.906Z,90.58
2022-11-06T00:15:40.143Z,91.05
2022-11-06T00:16:39.872Z,91.52
2022-11-06T00:17:39.875Z,91.33
2022-11-06T00:18:40.093Z,92
2022-11-06T00:19:39.827Z,91.81
2022-11-06T00:20:40.078Z,92.19
2022-11-06T00:21:40.046Z,92.38
2022-11-06T00:22:40.924Z,91.9
2022-11-06T00:23:40.643Z,91.71
2022-11-06T00:24:40.868Z,91.14
2022-11-06T00:25:40.872Z,91.05
2022-11-06T00:26:40.587Z,90.86
2022-11-06T00:27:40.565Z,91.24
2022-11-06T00:28:40.804Z,91.05
2022-11-06T00:29:40.788Z,90.86
2022-11-06T00:30:40.521Z,90.48
2022-11-06T00:31:40.765Z,90.01
2022-11-06T00:32:40.734Z,89.63
2022-11-06T00:33:40.947Z,89.25
2022-11-06T00:34:40.708Z,89.72
2022-11-06T00:35:40.684Z,89.91
2022-11-06T00:36:40.692Z,88.96
2022-11-06T00:37:40.397Z,89.34
2022-11-06T00:38:40.381Z,90.01
2022-11-06T00:39:40.734Z,89.91
2022-11-06T00:40:40.607Z,89.63
2022-11-06T00:41:40.595Z,89.72
2022-11-06T00:42:40.567Z,89.72
2022-11-06T00:43:40.302Z,89.82
2022-11-06T00:44:40.288Z,89.82
2022-11-06T00:45:40.273Z,90.29
2022-11-06T00:46:40.498Z,90.39
2022-11-06T00:47:40.229Z,91.05
2022-11-06T00:48:40.465Z,91.14
2022-11-06T00:49:40.480Z,91.24
2022-11-06T00:50:40.432Z,91.33
2022-11-06T00:51:40.417Z,91.62
2022-11-06T00:52:40.419Z,90.95
2022-11-06T00:53:40.387Z,91.62
2022-11-06T00:54:40.111Z,91.52
2022-11-06T00:55:40.092Z,91.43
2022-11-06T00:56:40.073Z,91.9
2022-11-06T00:57:40.312Z,92
2022-11-06T00:58:40.045Z,92.19
2022-11-06T00:59:40.032Z,92.47
2022-11-06T01:00:40.272Z,92.38
2022-11-06T01:01:40.348Z,92.47
2022-11-06T01:02:40.275Z,93.04
2022-11-06T01:03:40.219Z,92.61
2022-11-06T01:04:40.245Z,92.28
2022-11-06T01:05:40.209Z,91.67
2022-11-06T01:06:40.167Z,92.19
2022-11-06T01:07:39.897Z,92.33
2022-11-06T01:08:40.160Z,92.61
2022-11-06T01:09:39.862Z,93.04
2022-11-06T01:10:39.845Z,92.99
2022-11-06T01:12:13.877Z,92.33
2022-11-06T01:12:39.810Z,91.95
2022-11-06T01:13:40.051Z,91.67
2022-11-06T01:14:39.779Z,92.05
2022-11-06T01:15:39.760Z,92.52
2022-11-06T01:16:39.741Z,92.99
2022-11-06T01:17:39.726Z,92.99
2022-11-06T01:18:39.964Z,93.75
2022-11-06T01:19:39.969Z,93.75
2022-11-06T01:20:39.933Z,93.65
2022-11-06T01:21:39.940Z,93.65
2022-11-06T01:22:39.895Z,93.84
2022-11-06T01:23:39.880Z,94.13
2022-11-06T01:24:40.207Z,94.42
2022-11-06T01:25:39.849Z,94.51
2022-11-06T01:26:58.756Z,94.13
2022-11-06T01:27:45.849Z,93.75
2022-11-06T01:28:46.081Z,93.65
2022-11-06T01:29:45.818Z,93.46
2022-11-06T01:30:46.050Z,93.56
2022-11-06T01:31:46.035Z,93.56
2022-11-06T01:32:46.013Z,92.9
2022-11-06T01:33:45.998Z,92.99
2022-11-06T01:34:46.015Z,92.43
2022-11-06T01:35:45.964Z,92.61
2022-11-06T01:36:45.965Z,93.18
2022-11-06T01:37:45.672Z,92.43
2022-11-06T01:38:45.657Z,92.43
2022-11-06T01:39:45.916Z,92.8
2022-11-06T01:40:45.879Z,92.8
2022-11-06T01:41:45.621Z,92.9
2022-11-06T01:42:45.639Z,92.8
2022-11-06T01:43:45.573Z,92.8
2022-11-06T01:44:45.892Z,92.43
2022-11-06T01:45:45.812Z,92.14
2022-11-06T01:46:45.777Z,92.14
2022-11-06T01:47:45.500Z,92.43
2022-11-06T01:48:45.740Z,91.67
2022-11-06T01:49:45.723Z,91.67
2022-11-06T01:50:45.702Z,91
2022-11-06T01:51:45.690Z,91.38
2022-11-06T01:52:45.673Z,91.38
2022-11-06T01:53:45.653Z,91.48
2022-11-06T01:54:45.633Z,92.05
2022-11-06T01:55:45.646Z,91.48
2022-11-06T01:56:45.344Z,91.19
2022-11-06T01:57:45.322Z,91.48
2022-11-06T01:58:45.307Z,91.48
2022-11-06T01:59:45.546Z,91.19
2022-11-06T02:00:45.275Z,91.1
2022-11-06T02:01:45.808Z,91.29
2022-11-06T02:02:45.993Z,91.1
2022-11-06T02:03:45.221Z,90.72
2022-11-06T02:04:45.461Z,90.72
2022-11-06T02:05:45.193Z,89.87
2022-11-06T02:06:45.168Z,89.58
2022-11-06T02:07:45.402Z,89.87
2022-11-06T02:08:46.079Z,89.68
2022-11-06T02:09:45.366Z,89.2
2022-11-06T02:10:45.096Z,89.96
2022-11-06T02:11:45.358Z,89.77
2022-11-06T02:12:45.317Z,90.72
2022-11-06T02:13:45.302Z,90.53
2022-11-06T02:14:45.282Z,91.19
2022-11-06T02:15:45.266Z,90.91
2022-11-06T02:16:45.246Z,91
2022-11-06T02:17:45.226Z,91.38
2022-11-06T02:18:44.956Z,91.48
2022-11-06T02:19:44.937Z,90.91
2022-11-06T02:20:45.181Z,91.19
2022-11-06T02:21:45.159Z,91.1
2022-11-06T02:22:45.143Z,91.38
2022-11-06T02:23:44.874Z,90.81
2022-11-06T02:24:45.135Z,90.06
2022-11-06T02:25:44.834Z,89.87
2022-11-06T02:26:45.073Z,90.06
2022-11-06T02:27:45.074Z,90.72
2022-11-06T02:28:44.780Z,90.91
2022-11-06T02:29:44.764Z,91.19
2022-11-06T02:30:45.003Z,91
2022-11-06T02:31:44.729Z,91
2022-11-06T02:32:44.972Z,90.72
2022-11-06T02:33:44.693Z,90.44
2022-11-06T02:34:44.938Z,90.72
2022-11-06T02:35:44.909Z,90.25
2022-11-06T02:36:44.641Z,89.87
2022-11-06T02:37:44.877Z,89.87
2022-11-06T02:38:44.864Z,90.15
2022-11-06T02:39:44.852Z,89.49
2022-11-06T02:40:44.857Z,89.49
2022-11-06T02:41:44.557Z,89.3
2022-11-06T02:42:44.792Z,89.2
2022-11-06T02:43:44.795Z,89.3
2022-11-06T02:44:44.502Z,88.73
2022-11-06T02:45:44.485Z,89.3
2022-11-06T02:46:44.465Z,88.92
2022-11-06T02:47:44.704Z,88.64
2022-11-06T02:48:44.687Z,88.45
2022-11-06T02:49:44.414Z,87.5
2022-11-06T02:50:44.652Z,87.02
2022-11-06T02:51:44.380Z,86.83
2022-11-06T02:52:44.618Z,86.36
2022-11-06T02:53:44.344Z,86.93
2022-11-06T02:54:44.582Z,85.46
2022-11-06T02:55:44.316Z,84.7
2022-11-06T02:56:44.572Z,83.94
2022-11-06T02:57:44.274Z,83.56
2022-11-06T02:58:51.035Z,83.56
2022-11-06T02:59:44.524Z,83.56
2022-11-06T03:00:44.478Z,83.56
2022-11-06T03:01:44.701Z,83.75
2022-11-06T03:02:44.808Z,83.75
2022-11-06T03:03:44.456Z,83.66
2022-11-06T03:04:44.414Z,83.47
2022-11-06T03:05:44.134Z,84.04
2022-11-06T03:06:44.118Z,84.51
2022-11-06T03:07:44.355Z,84.42
2022-11-06T03:08:44.337Z,84.8
2022-11-06T03:09:44.069Z,85.36
2022-11-06T03:10:44.309Z,85.36
2022-11-06T03:11:44.035Z,84.89
2022-11-06T03:12:44.039Z,85.17
2022-11-06T03:13:43.999Z,85.65
2022-11-06T03:14:44.238Z,85.46
2022-11-06T03:15:44.246Z,85.74
2022-11-06T03:16:44.201Z,86.03
2022-11-06T03:17:44.237Z,85.74
2022-11-06T03:18:44.166Z,85.55
2022-11-06T03:19:43.899Z,85.27
2022-11-06T03:20:44.134Z,85.55
2022-11-06T03:21:44.118Z,85.27
2022-11-06T03:22:44.100Z,85.65
2022-11-06T03:23:43.825Z,85.46
2022-11-06T03:24:44.066Z,85.36
2022-11-06T03:25:44.049Z,85.65
2022-11-06T03:26:44.028Z,86.03
2022-11-06T03:27:44.014Z,86.31
2022-11-06T03:28:44.019Z,86.12
2022-11-06T03:29:43.979Z,86.31
2022-11-06T03:30:43.716Z,86.03
2022-11-06T03:31:43.971Z,86.22
2022-11-06T03:49:45.292Z,88.11
2022-11-06T03:50:45.084Z,88.02
2022-11-06T03:51:45.082Z,88.21
2022-11-06T03:52:45.834Z,88.11
2022-11-06T03:53:45.029Z,88.68
2022-11-06T03:54:45.017Z,88.17
2022-11-06T03:55:44.734Z,88.02
2022-11-06T03:56:44.722Z,88.17
2022-11-06T03:57:44.957Z,88.07
2022-11-06T03:58:44.800Z,86.93
2022-11-06T03:59:44.913Z,86.55
2022-11-06T04:00:44.641Z,86.93
2022-11-06T04:01:45.021Z,86.41
2022-11-06T04:02:44.976Z,85.93
2022-11-06T04:03:44.845Z,85.84
2022-11-06T04:04:44.829Z,85.55
2022-11-06T04:05:44.858Z,84.8
2022-11-06T04:06:44.791Z,84.51
2022-11-06T04:07:44.515Z,84.99
2022-11-06T04:08:44.504Z,85.08
2022-11-06T04:09:44.741Z,84.89
2022-11-06T04:10:44.729Z,84.99
2022-11-06T04:11:44.699Z,85.46
2022-11-06T04:12:44.433Z,85.36
2022-11-06T04:13:44.408Z,86.03
2022-11-06T04:14:44.699Z,86.12
2022-11-06T04:15:44.635Z,86.88
2022-11-06T04:16:44.616Z,86.79
2022-11-06T04:17:44.608Z,86.6
2022-11-06T04:18:44.327Z,86.12
2022-11-06T04:19:44.306Z,86.03
2022-11-06T04:20:44.296Z,86.22
2022-11-06T04:21:44.697Z,86.79
2022-11-06T04:22:44.255Z,86.98
2022-11-06T04:23:44.489Z,86.6
2022-11-06T04:24:44.476Z,86.88
2022-11-06T04:25:44.207Z,86.98
2022-11-06T04:26:44.441Z,86.88
2022-11-06T04:27:44.426Z,86.6
2022-11-06T04:28:44.150Z,86.5
2022-11-06T04:29:44.386Z,86.98
2022-11-06T04:30:44.378Z,87.26
2022-11-06T04:31:44.099Z,87.64
2022-11-06T04:32:44.335Z,87.45
2022-11-06T04:33:44.064Z,87.54
2022-11-06T04:34:44.304Z,88.11
2022-11-06T04:35:44.284Z,88.59
2022-11-06T04:36:44.266Z,88.3
2022-11-06T04:37:44.293Z,88.4
2022-11-06T04:38:43.979Z,88.4
2022-11-06T04:39:43.961Z,89.25
2022-11-06T04:40:44.197Z,89.53
2022-11-06T04:41:43.934Z,90.25
2022-11-06T04:42:44.176Z,90.63
2022-11-06T04:43:43.891Z,90.72
2022-11-06T04:44:44.125Z,91
2022-11-06T04:45:43.862Z,90.53
2022-11-06T04:46:44.101Z,90.53
2022-11-06T04:47:43.825Z,90.81
2022-11-06T04:48:44.056Z,91.1
2022-11-06T04:49:44.048Z,90.91
2022-11-06T04:50:44.047Z,91.67
2022-11-06T04:51:44.013Z,91.38
2022-11-06T04:52:43.732Z,91
2022-11-06T04:53:44.117Z,90.72
2022-11-06T04:54:43.951Z,91
2022-11-06T04:55:43.939Z,90.81
2022-11-06T04:56:48.661Z,91.19
2022-11-06T04:57:43.903Z,91.19
2022-11-06T04:58:43.887Z,91.57
2022-11-06T04:59:43.615Z,91.67
2022-11-06T05:00:43.988Z,91.38
2022-11-06T05:01:44.215Z,90.72
2022-11-06T05:02:43.815Z,90.72
2022-11-06T05:03:43.565Z,91.67
2022-11-06T05:04:43.527Z,91.38
2022-11-06T05:05:43.765Z,92.05
2022-11-06T05:06:43.742Z,92.05
2022-11-06T05:07:43.728Z,92
2022-11-06T05:08:43.708Z,91.86
2022-11-06T05:09:43.833Z,91.81
2022-11-06T05:10:43.418Z,91.24
2022-11-06T05:11:43.407Z,91.43
2022-11-06T05:12:43.644Z,91.19
2022-11-06T05:13:43.644Z,91.57
2022-11-06T05:14:43.351Z,91.62
2022-11-06T05:15:43.333Z,91.91
2022-11-06T05:16:43.571Z,91.76
2022-11-06T05:17:43.554Z,91.24
2022-11-06T05:18:43.534Z,91.62
2022-11-06T05:19:43.528Z,91.15
2022-11-06T05:20:43.246Z,90.58
2022-11-06T05:21:43.490Z,90.39
2022-11-06T05:22:43.463Z,90.67
2022-11-06T05:23:43.191Z,89.82
2022-11-06T05:24:43.437Z,90.2
2022-11-06T05:25:43.461Z,90.3
2022-11-06T05:26:43.394Z,90.48
2022-11-06T05:27:43.125Z,90.67
2022-11-06T05:28:43.355Z,90.67
2022-11-06T05:29:43.085Z,89.92
2022-11-06T05:30:43.322Z,90.11
2022-11-06T05:31:43.307Z,89.73
2022-11-06T05:32:43.032Z,89.82
2022-11-06T05:33:43.015Z,90.86
2022-11-06T05:34:43.252Z,90.01
2022-11-06T05:35:43.241Z,89.63
2022-11-06T05:36:43.219Z,89.44
2022-11-06T05:37:42.942Z,89.54
2022-11-06T05:38:43.186Z,89.54
2022-11-06T05:39:44.627Z,89.35
2022-11-06T05:40:43.148Z,89.63
2022-11-06T05:41:43.292Z,89.06
2022-11-06T05:42:42.855Z,88.97
2022-11-06T05:43:43.091Z,88.21
2022-11-06T05:44:43.078Z,88.45
2022-11-06T05:45:43.058Z,88.4
2022-11-06T05:46:51.621Z,88.68
2022-11-06T05:47:43.024Z,88.73
2022-11-06T05:48:43.005Z,89.2
2022-11-06T05:49:42.734Z,89.39
2022-11-06T05:50:42.714Z,89.44
2022-11-06T05:51:42.694Z,90.15
2022-11-06T05:52:42.937Z,90.39
2022-11-06T05:53:42.915Z,91.24
2022-11-06T05:54:42.901Z,90.86
2022-11-06T05:55:42.880Z,90.77
2022-11-06T05:56:42.867Z,91.62
2022-11-06T05:57:42.893Z,91.34
2022-11-06T05:58:42.577Z,90.86
2022-11-06T05:59:42.559Z,91.05
2022-11-06T06:00:42.537Z,91.05
2022-11-06T06:01:43.113Z,91.24
2022-11-06T06:02:43.224Z,91.34
2022-11-06T06:03:42.741Z,91.24
2022-11-06T06:04:42.724Z,91.43
2022-11-06T06:05:42.703Z,91.62
2022-11-06T06:06:42.688Z,91.34
2022-11-06T06:07:42.665Z,91.05
2022-11-06T06:08:42.652Z,90.77
2022-11-06T06:09:42.631Z,91.62
2022-11-06T06:10:42.617Z,91.15
2022-11-06T06:11:42.599Z,91.43
2022-11-06T06:12:42.584Z,91.24
2022-11-06T06:13:42.612Z,90.48
2022-11-06T06:14:44.635Z,89.54
2022-11-06T06:15:42.527Z,89.16
2022-11-06T06:16:42.507Z,88.78
2022-11-06T06:17:42.491Z,88.59
2022-11-06T06:18:42.475Z,88.87
2022-11-06T06:19:42.455Z,89.25
2022-11-06T06:20:42.179Z,88.59
2022-11-06T06:21:42.426Z,88.21
2022-11-06T06:22:42.402Z,88.21
2022-11-06T06:23:42.389Z,87.93
2022-11-06T06:24:42.293Z,87.93
2022-11-06T06:25:42.348Z,87.84
2022-11-06T06:26:42.333Z,88.59
2022-11-06T06:27:42.055Z,88.49
2022-11-06T06:28:42.038Z,88.49
2022-11-06T06:29:42.329Z,88.49
2022-11-06T06:30:42.008Z,88.31
2022-11-06T06:31:43.063Z,88.78
2022-11-06T06:32:42.788Z,88.97
2022-11-06T06:33:43.027Z,88.87
2022-11-06T06:34:42.748Z,89.06
2022-11-06T06:35:42.994Z,88.87
2022-11-06T06:36:42.972Z,89.25
2022-11-06T06:37:42.704Z,89.35
2022-11-06T06:38:42.938Z,89.54
2022-11-06T06:39:42.662Z,89.63
2022-11-06T06:40:42.900Z,89.73
2022-11-06T06:41:42.627Z,90.01
2022-11-06T06:42:42.864Z,90.11
2022-11-06T06:43:42.847Z,90.11
2022-11-06T06:44:42.832Z,90.39
2022-11-06T06:45:42.870Z,90.3
2022-11-06T06:46:42.540Z,90.77
2022-11-06T06:47:42.520Z,90.39
2022-11-06T06:48:42.759Z,90.58
2022-11-06T06:49:42.746Z,90.3
2022-11-06T06:50:42.721Z,90.58
2022-11-06T06:51:42.451Z,90.48
2022-11-06T06:52:42.430Z,90.39
2022-11-06T06:53:42.670Z,90.48
2022-11-06T06:54:42.653Z,90.67
2022-11-06T06:55:42.636Z,90.67
2022-11-06T06:56:42.625Z,90.11
2022-11-06T06:57:42.350Z,90.2
2022-11-06T06:58:42.580Z,89.73
2022-11-06T06:59:42.564Z,89.73
2022-11-06T07:00:42.669Z,89.63
2022-11-06T07:01:42.890Z,89.92
2022-11-06T07:02:42.511Z,89.25
2022-11-06T07:03:42.494Z,89.25
2022-11-06T07:04:42.227Z,88.31
2022-11-06T07:05:42.608Z,87.84
2022-11-06T07:06:42.195Z,87.65
2022-11-06T07:07:42.424Z,87.74
2022-11-06T07:08:42.168Z,87.59
2022-11-06T07:09:42.392Z,87.02
2022-11-06T07:10:42.113Z,87.31
2022-11-06T07:11:42.353Z,87.31
2022-11-06T07:12:42.079Z,87.02
2022-11-06T07:13:42.057Z,87.88
2022-11-06T07:14:42.297Z,87.4
2022-11-06T07:15:42.122Z,87.4
2022-11-06T07:16:42.007Z,87.4
2022-11-06T07:17:42.478Z,87.21
2022-11-06T07:18:41.982Z,87.21
2022-11-06T07:19:42.208Z,87.59
2022-11-06T07:20:42.198Z,87.4
2022-11-06T07:21:42.172Z,87.4
2022-11-06T07:22:41.901Z,87.4
2022-11-06T07:23:41.889Z,87.02
2022-11-06T07:24:42.120Z,87.4
2022-11-06T07:25:42.104Z,87.4
2022-11-06T07:26:42.089Z,88.07
2022-11-06T07:27:42.070Z,88.45
2022-11-06T07:28:42.055Z,88.64
2022-11-06T07:29:42.031Z,88.82
2022-11-06T07:30:42.022Z,88.92
2022-11-06T07:31:42.013Z,89.01
2022-11-06T07:32:41.982Z,89.3
2022-11-06T07:33:42.007Z,88.92
2022-11-06T07:34:41.946Z,88.82
2022-11-06T07:35:41.923Z,88.82
2022-11-06T07:36:41.910Z,88.73
2022-11-06T07:37:41.891Z,88.82
2022-11-06T07:38:41.875Z,88.07
2022-11-06T07:39:41.600Z,87.69
2022-11-06T07:40:41.990Z,87.21
2022-11-06T07:41:41.824Z,87.02
2022-11-06T07:42:45.848Z,86.55
2022-11-06T07:43:41.787Z,86.55
2022-11-06T07:44:41.518Z,86.83
2022-11-06T07:45:41.755Z,86.55
2022-11-06T07:46:41.735Z,86.79
2022-11-06T07:47:41.725Z,86.79
2022-11-06T07:48:41.700Z,87.07
2022-11-06T07:49:44.491Z,87.54
2022-11-06T07:50:41.413Z,87.59
2022-11-06T07:51:41.644Z,87.73
2022-11-06T07:52:41.630Z,88.21
2022-11-06T07:53:41.686Z,88.02
2022-11-06T07:54:41.340Z,88.3
2022-11-06T07:55:44.728Z,88.11
2022-11-06T07:56:41.304Z,87.73
2022-11-06T07:57:41.542Z,87.64
2022-11-06T07:58:41.527Z,87.64
2022-11-06T07:59:41.511Z,87.16
2022-11-06T08:00:41.357Z,87.54
2022-11-06T08:01:41.538Z,87.92
2022-11-06T08:02:41.442Z,87.54
2022-11-06T08:03:41.185Z,87.83
2022-11-06T08:04:41.426Z,87.83
2022-11-06T08:05:41.539Z,87.64
2022-11-06T08:06:41.134Z,87.45
2022-11-06T08:07:41.375Z,87.64
2022-11-06T08:08:41.101Z,87.73
2022-11-06T08:09:41.082Z,88.21
2022-11-06T08:10:41.323Z,88.59
2022-11-06T08:11:41.051Z,89.44
2022-11-06T08:12:41.028Z,89.34
2022-11-06T08:13:41.269Z,89.34
2022-11-06T08:14:43.772Z,88.96
2022-11-06T08:15:41.246Z,89.25
2022-11-06T08:16:41.215Z,89.44
2022-11-06T08:17:40.953Z,89.25
2022-11-06T08:18:40.926Z,89.25
2022-11-06T08:19:41.173Z,88.87
2022-11-06T08:20:40.895Z,88.49
2022-11-06T08:21:41.187Z,88.59
2022-11-06T08:22:41.117Z,88.59
2022-11-06T08:23:41.103Z,88.68
2022-11-06T08:24:40.823Z,88.78
2022-11-06T08:25:41.064Z,88.59
2022-11-06T08:26:41.045Z,88.4
2022-11-06T08:27:41.028Z,88.68
2022-11-06T08:28:41.014Z,88.96
2022-11-06T08:29:44.033Z,89.01
2022-11-06T08:30:40.985Z,88.82
2022-11-06T08:31:40.969Z,89.48
2022-11-06T08:32:40.689Z,89.48
2022-11-06T08:33:40.941Z,89.86
2022-11-06T08:34:40.916Z,90.05
2022-11-06T08:35:40.909Z,90.72
2022-11-06T08:36:40.624Z,91.09
2022-11-06T08:37:40.912Z,91.47
2022-11-06T08:38:40.628Z,91.66
2022-11-06T08:39:40.832Z,91.85
2022-11-06T08:40:40.563Z,92.71
2022-11-06T08:41:40.792Z,92.9
2022-11-06T08:42:40.779Z,92.8
2022-11-06T08:43:40.506Z,93.08
2022-11-06T08:44:40.483Z,93.27
2022-11-06T08:45:40.849Z,93.65
2022-11-06T08:46:40.710Z,93.65
2022-11-06T08:47:40.691Z,94.13
2022-11-06T08:48:40.677Z,95.26
2022-11-06T08:49:40.406Z,95.26
2022-11-06T08:50:40.385Z,95.45
2022-11-06T08:51:40.369Z,95.65
2022-11-06T08:52:40.609Z,95.84
2022-11-06T08:53:40.973Z,95.65
2022-11-06T08:54:40.322Z,96.5
2022-11-06T08:55:40.560Z,96.88
2022-11-06T08:56:40.292Z,96.97
2022-11-06T08:57:40.528Z,97.45
2022-11-06T08:58:40.510Z,98.49
2022-11-06T08:59:40.491Z,98.82
2022-11-06T09:00:40.613Z,99.11
2022-11-06T09:01:40.757Z,99.44
2022-11-06T09:02:40.316Z,99.91
2022-11-06T09:03:40.427Z,99.99
2022-11-06T09:04:43.592Z,99.99
2022-11-06T09:05:40.395Z,99.99
2022-11-06T09:06:40.383Z,99.99
2022-11-06T09:07:40.106Z,99.99
2022-11-06T09:08:40.345Z,99.99
2022-11-06T09:09:40.489Z,99.99
2022-11-06T09:10:40.058Z,99.99
2022-11-06T09:11:40.295Z,99.99
2022-11-06T09:12:40.286Z,99.99
2022-11-06T09:13:40.051Z,99.99
2022-11-06T09:14:40.250Z,99.99
2022-11-06T09:15:39.981Z,99.99
2022-11-06T09:16:40.213Z,99.99
2022-11-06T09:17:39.943Z,99.99
2022-11-06T09:18:40.193Z,99.99
2022-11-06T09:19:39.910Z,99.99
2022-11-06T09:20:40.154Z,99.99
2022-11-06T09:21:40.132Z,99.99
2022-11-06T09:22:40.124Z,99.99
2022-11-06T09:23:39.846Z,99.99
2022-11-06T09:25:04.836Z,99.99
2022-11-06T09:25:40.093Z,99.99
2022-11-06T09:26:40.055Z,99.99
2022-11-06T09:27:40.035Z,99.99
2022-11-06T09:28:40.031Z,99.99
2022-11-06T09:29:40.005Z,99.99
2022-11-06T09:30:39.993Z,99.99
2022-11-06T09:31:39.985Z,99.99
2022-11-06T09:32:39.960Z,99.99
2022-11-06T09:33:39.685Z,99.99
2022-11-06T09:34:39.925Z,99.99
2022-11-06T09:35:39.912Z,99.99
2022-11-06T09:36:39.892Z,99.99
2022-11-06T09:37:39.880Z,99.99
2022-11-06T09:38:39.861Z,99.99
2022-11-06T09:39:39.586Z,99.99
2022-11-06T09:40:39.602Z,99.99
2022-11-06T09:41:39.838Z,99.99
2022-11-06T09:42:39.540Z,99.99
2022-11-06T09:44:09.810Z,99.99
2022-11-06T09:44:39.769Z,99.99
2022-11-06T09:45:39.755Z,99.99
2022-11-06T09:46:39.733Z,99.99
2022-11-06T09:47:39.458Z,99.99
2022-11-06T09:48:39.443Z,99.99
2022-11-06T09:49:39.689Z,99.99
2022-11-06T09:50:39.668Z,99.99
2022-11-06T09:51:39.884Z,99.99
2022-11-06T09:52:39.776Z,99.99
2022-11-06T09:53:39.655Z,99.99
2022-11-06T09:54:39.613Z,99.99
2022-11-06T09:55:39.874Z,99.99
2022-11-06T09:56:39.343Z,99.99
2022-11-06T09:57:39.682Z,99.99
2022-11-06T09:58:39.541Z,99.99
2022-11-06T09:59:39.534Z,99.99
2022-11-06T10:00:39.519Z,99.99
2022-11-06T10:01:39.524Z,99.99
2022-11-06T10:02:39.435Z,99.99
2022-11-06T10:03:39.208Z,99.99
2022-11-06T10:04:39.444Z,99.99
2022-11-06T10:05:39.434Z,99.99
2022-11-06T10:06:39.156Z,99.99
2022-11-06T10:07:39.402Z,99.99
2022-11-06T10:08:39.381Z,99.99
2022-11-06T10:09:39.371Z,99.99
2022-11-06T10:10:39.094Z,99.99
2022-11-06T10:11:39.340Z,99.99
2022-11-06T10:12:39.429Z,99.99
2022-11-06T10:13:39.336Z,99.99
2022-11-06T10:14:39.323Z,99.99
2022-11-06T10:15:39.022Z,99.99
2022-11-06T10:16:39.261Z,99.99
2022-11-06T10:17:39.249Z,99.99
2022-11-06T10:18:38.973Z,99.99
2022-11-06T10:19:39.212Z,99.99
2022-11-06T10:20:39.201Z,99.99
2022-11-06T10:21:38.933Z,99.99
2022-11-06T10:22:39.171Z,99.99
2022-11-06T10:23:39.157Z,99.99
2022-11-06T10:24:38.882Z,99.99
2022-11-06T10:25:39.124Z,99.99
2022-11-06T10:26:39.109Z,99.99
2022-11-06T10:27:39.094Z,99.99
2022-11-06T10:28:39.109Z,99.99
2022-11-06T10:29:39.084Z,99.99
2022-11-06T10:30:39.047Z,99.99
2022-11-06T10:31:39.031Z,99.99
2022-11-06T10:32:38.776Z,99.99
2022-11-06T10:33:39.001Z,99.99
2022-11-06T10:34:38.987Z,99.99
2022-11-06T10:35:38.718Z,99.99
2022-11-06T10:36:38.700Z,99.99
2022-11-06T10:37:38.688Z,99.99
2022-11-06T10:38:38.926Z,99.99
2022-11-06T10:39:38.654Z,99.99
2022-11-06T10:40:38.901Z,99.99
2022-11-06T10:41:38.629Z,99.99
2022-11-06T10:42:40.762Z,99.99
2022-11-06T10:43:38.859Z,99.99
2022-11-06T10:44:38.971Z,99.99
2022-11-06T10:45:38.863Z,99.99
2022-11-06T10:46:38.554Z,99.99
2022-11-06T10:47:38.800Z,99.99
2022-11-06T10:48:43.767Z,99.99
2022-11-06T10:49:38.766Z,99.99
2022-11-06T10:50:38.756Z,99.99
2022-11-06T10:51:38.739Z,99.99
2022-11-06T10:52:38.465Z,99.99
2022-11-06T10:53:38.454Z,99.99
2022-11-06T10:54:38.438Z,99.99
2022-11-06T10:55:38.427Z,99.99
2022-11-06T10:56:38.667Z,99.99
2022-11-06T10:57:38.650Z,99.99
2022-11-06T10:58:38.644Z,99.99
2022-11-06T10:59:38.624Z,99.99
2022-11-06T11:00:38.523Z,99.99
2022-11-06T11:01:38.984Z,99.99
2022-11-06T11:02:38.805Z,99.99
2022-11-06T11:03:38.564Z,99.99
2022-11-06T11:04:38.589Z,99.99
2022-11-06T11:05:38.535Z,99.99
2022-11-06T11:06:38.521Z,99.99
2022-11-06T11:07:38.504Z,99.99
2022-11-06T11:08:38.495Z,99.99
2022-11-06T11:09:38.473Z,99.99
2022-11-06T11:10:38.484Z,99.99
2022-11-06T11:11:38.447Z,99.99
2022-11-06T11:12:38.436Z,99.99
2022-11-06T11:13:38.421Z,99.99
2022-11-06T11:14:38.404Z,99.99
2022-11-06T11:15:38.390Z,99.99
2022-11-06T11:16:38.400Z,99.99
2022-11-06T11:17:38.386Z,99.99
2022-11-06T11:18:38.360Z,99.99
2022-11-06T11:19:38.096Z,99.99
2022-11-06T11:20:38.321Z,99.99
2022-11-06T11:21:38.049Z,99.99
2022-11-06T11:22:38.552Z,99.99
2022-11-06T11:23:38.509Z,99.99
2022-11-06T11:24:38.501Z,99.99
2022-11-06T11:25:38.478Z,99.99
2022-11-06T11:26:38.478Z,99.99
2022-11-06T11:27:38.446Z,99.99
2022-11-06T11:28:38.185Z,99.99
2022-11-06T11:29:38.423Z,99.99
2022-11-06T11:30:38.150Z,99.99
2022-11-06T11:31:38.394Z,99.99
2022-11-06T11:32:38.406Z,99.99
2022-11-06T11:33:38.487Z,99.99
2022-11-06T11:34:38.093Z,99.99
2022-11-06T11:35:38.336Z,99.99
2022-11-06T11:36:38.324Z,99.99
2022-11-06T11:37:38.316Z,99.99
2022-11-06T11:38:38.055Z,99.99
2022-11-06T11:39:38.036Z,99.99
2022-11-06T11:40:38.548Z,99.99
2022-11-06T11:41:38.011Z,99.99
2022-11-06T11:42:37.981Z,99.99
2022-11-06T11:43:38.232Z,99.99
2022-11-06T11:44:38.212Z,99.99
2022-11-06T11:45:38.203Z,99.99
2022-11-06T11:46:38.183Z,99.99
2022-11-06T11:47:37.915Z,99.99
2022-11-06T11:48:38.178Z,99.99
2022-11-06T11:49:38.163Z,99.99
2022-11-06T11:50:38.121Z,99.99
2022-11-06T11:51:38.116Z,99.99
2022-11-06T11:52:37.840Z,99.99
2022-11-06T11:53:38.087Z,99.99
2022-11-06T11:54:38.073Z,99.99
2022-11-06T11:55:37.801Z,99.99
2022-11-06T11:57:06.808Z,99.99
2022-11-06T11:57:38.029Z,99.99
2022-11-06T11:58:38.016Z,99.99
2022-11-06T11:59:37.743Z,99.99
2022-11-06T12:00:37.735Z,99.99
2022-11-06T12:01:37.786Z,99.99
2022-11-06T12:02:38.292Z,99.99
2022-11-06T12:03:37.942Z,99.99
2022-11-06T12:04:37.952Z,99.99
2022-11-06T12:05:37.937Z,99.99
2022-11-06T12:06:37.911Z,99.99
2022-11-06T12:07:40.861Z,99.99
2022-11-06T12:08:37.873Z,99.99
2022-11-06T12:09:37.860Z,99.99
2022-11-06T12:10:37.606Z,99.99
2022-11-06T12:11:37.835Z,99.99
2022-11-06T12:12:37.813Z,99.99
2022-11-06T12:13:37.544Z,99.99
2022-11-06T12:14:37.527Z,99.99
2022-11-06T12:15:37.523Z,99.99
2022-11-06T12:16:37.756Z,99.99
2022-11-06T12:17:37.743Z,99.99
2022-11-06T12:18:37.732Z,99.99
2022-11-06T12:19:37.717Z,99.99
2022-11-06T12:20:37.724Z,99.99
2022-11-06T12:21:37.708Z,99.99
2022-11-06T12:22:37.677Z,99.99
2022-11-06T12:23:37.403Z,99.99
2022-11-06T12:24:37.649Z,99.99
2022-11-06T12:25:37.376Z,99.99
2022-11-06T12:26:37.363Z,99.99
2022-11-06T12:27:37.606Z,99.99
2022-11-06T12:28:37.598Z,99.99
2022-11-06T12:29:37.574Z,99.99
2022-11-06T12:30:37.568Z,99.99
2022-11-06T12:31:37.291Z,99.99
2022-11-06T12:32:37.534Z,99.99
2022-11-06T12:34:09.154Z,99.99
2022-11-06T12:34:37.508Z,99.99
2022-11-06T12:35:37.488Z,99.99
2022-11-06T12:36:37.506Z,99.99
2022-11-06T12:37:37.487Z,99.99
2022-11-06T12:38:37.192Z,99.99
2022-11-06T12:39:37.434Z,99.99
2022-11-06T12:40:37.421Z,99.99
2022-11-06T12:41:37.156Z,99.99
2022-11-06T12:42:37.136Z,99.99
2022-11-06T12:43:37.382Z,99.99
2022-11-06T12:44:37.108Z,99.99
2022-11-06T12:45:37.095Z,99.99
2022-11-06T12:46:37.081Z,99.99
2022-11-06T12:47:37.314Z,99.99
2022-11-06T12:48:37.050Z,99.99
2022-11-06T12:49:37.287Z,99.99
2022-11-06T12:50:37.277Z,99.99
2022-11-06T12:51:37.260Z,99.99
2022-11-06T12:52:37.277Z,99.99
2022-11-06T12:53:37.256Z,99.99
2022-11-06T12:54:37.222Z,99.99
2022-11-06T12:55:37.209Z,99.99
2022-11-06T12:56:36.935Z,99.99
2022-11-06T12:57:36.925Z,99.99
2022-11-06T12:58:37.164Z,99.99
2022-11-06T12:59:36.894Z,99.99
2022-11-06T13:00:37.138Z,99.99
2022-11-06T13:01:37.148Z,99.99
2022-11-06T13:02:37.293Z,99.99
2022-11-06T13:03:36.841Z,99.99
2022-11-06T13:04:37.079Z,99.99
2022-11-06T13:05:37.064Z,99.99
2022-11-06T13:06:37.054Z,99.99
2022-11-06T13:07:37.053Z,99.99
2022-11-06T13:08:36.791Z,99.99
2022-11-06T13:09:37.041Z,99.99
2022-11-06T13:10:36.739Z,99.99
2022-11-06T13:11:36.975Z,99.99
2022-11-06T13:12:36.710Z,99.99